sensor_id;sensor_type;location;lat;lon;timestamp;P1;durP1;ratioP1;P2;durP2;ratioP2
52838;SDS011;39219;53.678;9.856;2022-08-14T00:01:12;7.82;;;3.50;;
52838;SDS011;39219;53.678;9.856;2022-08-14T00:03:39;5.60;;;3.35;;
52838;SDS011;39219;53.678;9.856;2022-08-14T00:06:06;7.22;;;3.50;;
52838;SDS011;39219;53.678;9.856;2022-08-14T00:08:33;7.65;;;3.40;;
52838;SDS011;39219;53.678;9.856;2022-08-14T00:10:59;5.47;;;3.40;;
52838;SDS011;39219;53.678;9.856;2022-08-14T00:13:26;5.85;;;3.50;;
52838;SDS011;39219;53.678;9.856;2022-08-14T00:15:55;6.57;;;3.67;;
52838;SDS011;39219;53.678;9.856;2022-08-14T00:18:25;4.72;;;3.60;;
52838;SDS011;39219;53.678;9.856;2022-08-14T00:20:53;6.10;;;3.65;;
52838;SDS011;39219;53.678;9.856;2022-08-14T00:23:21;4.70;;;3.55;;
52838;SDS011;39219;53.678;9.856;2022-08-14T00:25:49;8.57;;;3.97;;
52838;SDS011;39219;53.678;9.856;2022-08-14T00:28:17;5.70;;;3.60;;
52838;SDS011;39219;53.678;9.856;2022-08-14T00:30:46;6.20;;;3.78;;
52838;SDS011;39219;53.678;9.856;2022-08-14T00:33:13;5.03;;;3.60;;
52838;SDS011;39219;53.678;9.856;2022-08-14T00:35:41;5.55;;;3.58;;
52838;SDS011;39219;53.678;9.856;2022-08-14T00:38:07;5.93;;;3.70;;
52838;SDS011;39219;53.678;9.856;2022-08-14T00:40:34;6.25;;;3.90;;
52838;SDS011;39219;53.678;9.856;2022-08-14T00:43:00;8.60;;;3.83;;
52838;SDS011;39219;53.678;9.856;2022-08-14T00:45:27;5.18;;;3.90;;
52838;SDS011;39219;53.678;9.856;2022-08-14T00:47:53;7.90;;;3.97;;
52838;SDS011;39219;53.678;9.856;2022-08-14T00:50:20;6.75;;;3.80;;
52838;SDS011;39219;53.678;9.856;2022-08-14T00:52:49;6.28;;;3.97;;
52838;SDS011;39219;53.678;9.856;2022-08-14T00:55:17;6.22;;;3.83;;
52838;SDS011;39219;53.678;9.856;2022-08-14T00:57:45;5.78;;;3.83;;
52838;SDS011;39219;53.678;9.856;2022-08-14T01:00:33;6.60;;;4.20;;
52838;SDS011;39219;53.678;9.856;2022-08-14T01:03:00;5.97;;;3.78;;
52838;SDS011;39219;53.678;9.856;2022-08-14T01:05:28;6.50;;;4.10;;
52838;SDS011;39219;53.678;9.856;2022-08-14T01:07:56;6.32;;;3.75;;
52838;SDS011;39219;53.678;9.856;2022-08-14T01:10:23;6.78;;;4.00;;
52838;SDS011;39219;53.678;9.856;2022-08-14T01:13:10;5.53;;;3.70;;
52838;SDS011;39219;53.678;9.856;2022-08-14T01:15:38;6.53;;;3.80;;
52838;SDS011;39219;53.678;9.856;2022-08-14T01:18:04;6.78;;;3.92;;
52838;SDS011;39219;53.678;9.856;2022-08-14T01:20:48;6.75;;;3.90;;
52838;SDS011;39219;53.678;9.856;2022-08-14T01:23:34;6.20;;;3.90;;
52838;SDS011;39219;53.678;9.856;2022-08-14T01:26:04;4.28;;;3.53;;
52838;SDS011;39219;53.678;9.856;2022-08-14T01:28:31;6.35;;;3.90;;
52838;SDS011;39219;53.678;9.856;2022-08-14T01:31:02;5.47;;;3.72;;
52838;SDS011;39219;53.678;9.856;2022-08-14T01:33:32;6.13;;;3.80;;
52838;SDS011;39219;53.678;9.856;2022-08-14T01:36:05;5.38;;;3.90;;
52838;SDS011;39219;53.678;9.856;2022-08-14T01:38:35;5.55;;;3.75;;
52838;SDS011;39219;53.678;9.856;2022-08-14T01:41:02;8.70;;;3.83;;
52838;SDS011;39219;53.678;9.856;2022-08-14T01:43:31;7.13;;;3.95;;
52838;SDS011;39219;53.678;9.856;2022-08-14T01:46:03;5.88;;;3.95;;
52838;SDS011;39219;53.678;9.856;2022-08-14T01:48:35;6.65;;;3.70;;
52838;SDS011;39219;53.678;9.856;2022-08-14T01:51:03;6.97;;;3.78;;
52838;SDS011;39219;53.678;9.856;2022-08-14T01:53:29;5.20;;;3.90;;
52838;SDS011;39219;53.678;9.856;2022-08-14T01:55:58;5.07;;;3.70;;
52838;SDS011;39219;53.678;9.856;2022-08-14T01:58:29;6.78;;;3.70;;
52838;SDS011;39219;53.678;9.856;2022-08-14T02:00:55;4.90;;;3.78;;
52838;SDS011;39219;53.678;9.856;2022-08-14T02:03:23;5.88;;;3.55;;
52838;SDS011;39219;53.678;9.856;2022-08-14T02:05:52;7.10;;;3.83;;
52838;SDS011;39219;53.678;9.856;2022-08-14T02:08:23;4.68;;;3.58;;
52838;SDS011;39219;53.678;9.856;2022-08-14T02:10:52;4.53;;;3.67;;
52838;SDS011;39219;53.678;9.856;2022-08-14T02:13:41;7.13;;;4.00;;
52838;SDS011;39219;53.678;9.856;2022-08-14T02:16:08;4.80;;;3.50;;
52838;SDS011;39219;53.678;9.856;2022-08-14T02:18:35;6.65;;;3.95;;
52838;SDS011;39219;53.678;9.856;2022-08-14T02:21:02;5.80;;;3.85;;
52838;SDS011;39219;53.678;9.856;2022-08-14T02:23:29;6.15;;;3.50;;
52838;SDS011;39219;53.678;9.856;2022-08-14T02:25:56;4.57;;;3.50;;
52838;SDS011;39219;53.678;9.856;2022-08-14T02:28:23;6.68;;;3.95;;
52838;SDS011;39219;53.678;9.856;2022-08-14T02:30:51;5.07;;;3.70;;
52838;SDS011;39219;53.678;9.856;2022-08-14T02:33:18;7.93;;;4.00;;
52838;SDS011;39219;53.678;9.856;2022-08-14T02:35:45;5.68;;;3.85;;
52838;SDS011;39219;53.678;9.856;2022-08-14T02:38:11;6.35;;;3.80;;
52838;SDS011;39219;53.678;9.856;2022-08-14T02:40:38;5.10;;;3.60;;
52838;SDS011;39219;53.678;9.856;2022-08-14T02:43:04;7.60;;;3.60;;
52838;SDS011;39219;53.678;9.856;2022-08-14T02:45:31;6.38;;;3.78;;
52838;SDS011;39219;53.678;9.856;2022-08-14T02:48:00;6.13;;;3.80;;
52838;SDS011;39219;53.678;9.856;2022-08-14T02:50:31;6.53;;;3.63;;
52838;SDS011;39219;53.678;9.856;2022-08-14T02:52:58;4.97;;;3.53;;
52838;SDS011;39219;53.678;9.856;2022-08-14T02:55:24;5.15;;;3.70;;
52838;SDS011;39219;53.678;9.856;2022-08-14T02:57:51;5.90;;;3.80;;
52838;SDS011;39219;53.678;9.856;2022-08-14T03:00:18;6.90;;;3.67;;
52838;SDS011;39219;53.678;9.856;2022-08-14T03:02:45;6.13;;;3.75;;
52838;SDS011;39219;53.678;9.856;2022-08-14T03:05:13;6.20;;;4.05;;
52838;SDS011;39219;53.678;9.856;2022-08-14T03:07:41;5.60;;;3.70;;
52838;SDS011;39219;53.678;9.856;2022-08-14T03:10:08;6.60;;;3.60;;
52838;SDS011;39219;53.678;9.856;2022-08-14T03:12:35;7.65;;;4.00;;
52838;SDS011;39219;53.678;9.856;2022-08-14T03:15:03;5.68;;;3.40;;
52838;SDS011;39219;53.678;9.856;2022-08-14T03:17:34;6.72;;;3.80;;
52838;SDS011;39219;53.678;9.856;2022-08-14T03:20:00;6.40;;;3.95;;
52838;SDS011;39219;53.678;9.856;2022-08-14T03:22:29;5.72;;;3.58;;
52838;SDS011;39219;53.678;9.856;2022-08-14T03:24:57;7.07;;;3.72;;
52838;SDS011;39219;53.678;9.856;2022-08-14T03:27:25;6.13;;;3.90;;
52838;SDS011;39219;53.678;9.856;2022-08-14T03:29:55;6.72;;;4.10;;
52838;SDS011;39219;53.678;9.856;2022-08-14T03:32:21;6.20;;;3.83;;
52838;SDS011;39219;53.678;9.856;2022-08-14T03:34:48;6.00;;;3.80;;
52838;SDS011;39219;53.678;9.856;2022-08-14T03:37:15;6.53;;;3.70;;
52838;SDS011;39219;53.678;9.856;2022-08-14T03:39:43;6.05;;;3.70;;
52838;SDS011;39219;53.678;9.856;2022-08-14T03:42:09;5.55;;;3.90;;
52838;SDS011;39219;53.678;9.856;2022-08-14T03:44:37;9.38;;;4.30;;
52838;SDS011;39219;53.678;9.856;2022-08-14T03:47:05;10.80;;;4.35;;
52838;SDS011;39219;53.678;9.856;2022-08-14T03:49:32;6.38;;;3.97;;
52838;SDS011;39219;53.678;9.856;2022-08-14T03:51:58;5.55;;;4.00;;
52838;SDS011;39219;53.678;9.856;2022-08-14T03:54:29;7.18;;;4.20;;
52838;SDS011;39219;53.678;9.856;2022-08-14T03:57:01;6.68;;;3.78;;
52838;SDS011;39219;53.678;9.856;2022-08-14T03:59:27;5.63;;;3.90;;
52838;SDS011;39219;53.678;9.856;2022-08-14T04:01:54;10.80;;;3.92;;
52838;SDS011;39219;53.678;9.856;2022-08-14T04:04:20;5.68;;;3.80;;
52838;SDS011;39219;53.678;9.856;2022-08-14T04:06:46;5.85;;;3.88;;
52838;SDS011;39219;53.678;9.856;2022-08-14T04:09:15;7.82;;;4.05;;
52838;SDS011;39219;53.678;9.856;2022-08-14T04:11:42;5.88;;;3.70;;
52838;SDS011;39219;53.678;9.856;2022-08-14T04:14:10;5.72;;;4.03;;
52838;SDS011;39219;53.678;9.856;2022-08-14T04:16:38;6.50;;;3.72;;
52838;SDS011;39219;53.678;9.856;2022-08-14T04:19:07;13.18;;;3.88;;
52838;SDS011;39219;53.678;9.856;2022-08-14T04:21:34;5.38;;;3.80;;
52838;SDS011;39219;53.678;9.856;2022-08-14T04:24:00;5.22;;;3.65;;
52838;SDS011;39219;53.678;9.856;2022-08-14T04:26:28;8.60;;;3.80;;
52838;SDS011;39219;53.678;9.856;2022-08-14T04:28:55;7.63;;;3.80;;
52838;SDS011;39219;53.678;9.856;2022-08-14T04:31:24;4.70;;;3.70;;
52838;SDS011;39219;53.678;9.856;2022-08-14T04:33:50;9.25;;;3.90;;
52838;SDS011;39219;53.678;9.856;2022-08-14T04:36:17;6.10;;;3.97;;
52838;SDS011;39219;53.678;9.856;2022-08-14T04:38:44;8.23;;;4.00;;
52838;SDS011;39219;53.678;9.856;2022-08-14T04:41:28;5.32;;;3.88;;
52838;SDS011;39219;53.678;9.856;2022-08-14T04:44:09;5.95;;;3.72;;
52838;SDS011;39219;53.678;9.856;2022-08-14T04:46:37;5.32;;;3.90;;
52838;SDS011;39219;53.678;9.856;2022-08-14T04:49:03;5.65;;;4.10;;
52838;SDS011;39219;53.678;9.856;2022-08-14T04:51:29;7.00;;;3.80;;
52838;SDS011;39219;53.678;9.856;2022-08-14T04:53:57;8.43;;;3.88;;
52838;SDS011;39219;53.678;9.856;2022-08-14T04:56:25;8.05;;;4.22;;
52838;SDS011;39219;53.678;9.856;2022-08-14T04:58:54;7.03;;;3.83;;
52838;SDS011;39219;53.678;9.856;2022-08-14T05:01:24;6.63;;;3.90;;
52838;SDS011;39219;53.678;9.856;2022-08-14T05:03:52;7.25;;;3.90;;
52838;SDS011;39219;53.678;9.856;2022-08-14T05:06:20;7.45;;;3.72;;
52838;SDS011;39219;53.678;9.856;2022-08-14T05:08:47;6.93;;;3.92;;
52838;SDS011;39219;53.678;9.856;2022-08-14T05:11:13;7.60;;;3.95;;
52838;SDS011;39219;53.678;9.856;2022-08-14T05:13:42;6.90;;;3.88;;
52838;SDS011;39219;53.678;9.856;2022-08-14T05:16:08;7.18;;;3.78;;
52838;SDS011;39219;53.678;9.856;2022-08-14T05:18:37;6.13;;;3.53;;
52838;SDS011;39219;53.678;9.856;2022-08-14T05:21:05;5.50;;;3.80;;
52838;SDS011;39219;53.678;9.856;2022-08-14T05:23:34;6.10;;;3.50;;
52838;SDS011;39219;53.678;9.856;2022-08-14T05:26:02;4.13;;;3.50;;
52838;SDS011;39219;53.678;9.856;2022-08-14T05:28:37;5.57;;;3.53;;
52838;SDS011;39219;53.678;9.856;2022-08-14T05:31:05;7.72;;;3.72;;
52838;SDS011;39219;53.678;9.856;2022-08-14T05:33:33;8.25;;;3.55;;
52838;SDS011;39219;53.678;9.856;2022-08-14T05:36:02;4.85;;;3.42;;
52838;SDS011;39219;53.678;9.856;2022-08-14T05:38:32;6.63;;;3.50;;
52838;SDS011;39219;53.678;9.856;2022-08-14T05:40:59;6.00;;;3.20;;
52838;SDS011;39219;53.678;9.856;2022-08-14T05:43:26;5.10;;;3.20;;
52838;SDS011;39219;53.678;9.856;2022-08-14T05:45:53;6.82;;;3.30;;
52838;SDS011;39219;53.678;9.856;2022-08-14T05:48:20;4.93;;;2.90;;
52838;SDS011;39219;53.678;9.856;2022-08-14T05:50:46;4.95;;;2.95;;
52838;SDS011;39219;53.678;9.856;2022-08-14T05:53:12;5.72;;;3.00;;
52838;SDS011;39219;53.678;9.856;2022-08-14T05:55:40;5.85;;;3.15;;
52838;SDS011;39219;53.678;9.856;2022-08-14T05:58:07;5.43;;;3.00;;
52838;SDS011;39219;53.678;9.856;2022-08-14T06:00:35;6.03;;;2.90;;
52838;SDS011;39219;53.678;9.856;2022-08-14T06:03:03;5.38;;;2.90;;
52838;SDS011;39219;53.678;9.856;2022-08-14T06:05:31;7.53;;;3.10;;
52838;SDS011;39219;53.678;9.856;2022-08-14T06:07:57;4.35;;;3.00;;
52838;SDS011;39219;53.678;9.856;2022-08-14T06:10:25;6.07;;;3.10;;
52838;SDS011;39219;53.678;9.856;2022-08-14T06:12:54;5.57;;;3.22;;
52838;SDS011;39219;53.678;9.856;2022-08-14T06:15:21;4.22;;;3.10;;
52838;SDS011;39219;53.678;9.856;2022-08-14T06:17:50;4.43;;;3.05;;
52838;SDS011;39219;53.678;9.856;2022-08-14T06:20:18;5.43;;;3.17;;
52838;SDS011;39219;53.678;9.856;2022-08-14T06:22:45;6.22;;;3.30;;
52838;SDS011;39219;53.678;9.856;2022-08-14T06:25:12;5.93;;;3.33;;
52838;SDS011;39219;53.678;9.856;2022-08-14T06:27:41;5.35;;;3.03;;
52838;SDS011;39219;53.678;9.856;2022-08-14T06:30:11;6.35;;;3.20;;
52838;SDS011;39219;53.678;9.856;2022-08-14T06:32:38;4.22;;;2.90;;
52838;SDS011;39219;53.678;9.856;2022-08-14T06:35:06;5.57;;;3.00;;
52838;SDS011;39219;53.678;9.856;2022-08-14T06:37:37;4.82;;;3.10;;
52838;SDS011;39219;53.678;9.856;2022-08-14T06:40:05;4.95;;;2.90;;
52838;SDS011;39219;53.678;9.856;2022-08-14T06:42:33;6.00;;;2.70;;
52838;SDS011;39219;53.678;9.856;2022-08-14T06:44:59;7.15;;;2.90;;
52838;SDS011;39219;53.678;9.856;2022-08-14T06:47:27;6.22;;;2.97;;
52838;SDS011;39219;53.678;9.856;2022-08-14T06:49:54;7.45;;;2.80;;
52838;SDS011;39219;53.678;9.856;2022-08-14T06:52:20;5.45;;;2.80;;
52838;SDS011;39219;53.678;9.856;2022-08-14T06:54:47;4.80;;;2.70;;
52838;SDS011;39219;53.678;9.856;2022-08-14T06:57:13;7.25;;;2.90;;
52838;SDS011;39219;53.678;9.856;2022-08-14T06:59:40;2.97;;;2.53;;
52838;SDS011;39219;53.678;9.856;2022-08-14T07:02:06;3.60;;;2.65;;
52838;SDS011;39219;53.678;9.856;2022-08-14T07:04:52;4.65;;;2.83;;
52838;SDS011;39219;53.678;9.856;2022-08-14T07:07:36;4.53;;;2.65;;
52838;SDS011;39219;53.678;9.856;2022-08-14T07:10:03;4.63;;;2.83;;
52838;SDS011;39219;53.678;9.856;2022-08-14T07:12:30;4.55;;;2.70;;
52838;SDS011;39219;53.678;9.856;2022-08-14T07:14:57;10.15;;;2.90;;
52838;SDS011;39219;53.678;9.856;2022-08-14T07:17:23;4.30;;;3.03;;
52838;SDS011;39219;53.678;9.856;2022-08-14T07:19:52;4.80;;;2.90;;
52838;SDS011;39219;53.678;9.856;2022-08-14T07:22:19;5.35;;;2.67;;
52838;SDS011;39219;53.678;9.856;2022-08-14T07:24:45;3.17;;;2.58;;
52838;SDS011;39219;53.678;9.856;2022-08-14T07:27:12;4.10;;;2.45;;
52838;SDS011;39219;53.678;9.856;2022-08-14T07:29:38;6.07;;;2.80;;
52838;SDS011;39219;53.678;9.856;2022-08-14T07:32:05;3.88;;;2.50;;
52838;SDS011;39219;53.678;9.856;2022-08-14T07:34:35;4.40;;;2.90;;
52838;SDS011;39219;53.678;9.856;2022-08-14T07:37:03;5.45;;;2.70;;
52838;SDS011;39219;53.678;9.856;2022-08-14T07:39:29;4.85;;;2.60;;
52838;SDS011;39219;53.678;9.856;2022-08-14T07:41:56;6.57;;;2.80;;
52838;SDS011;39219;53.678;9.856;2022-08-14T07:44:23;3.95;;;2.83;;
52838;SDS011;39219;53.678;9.856;2022-08-14T07:46:49;5.85;;;3.00;;
52838;SDS011;39219;53.678;9.856;2022-08-14T07:49:16;3.92;;;2.55;;
52838;SDS011;39219;53.678;9.856;2022-08-14T07:51:42;3.22;;;2.75;;
52838;SDS011;39219;53.678;9.856;2022-08-14T07:54:10;6.60;;;2.70;;
52838;SDS011;39219;53.678;9.856;2022-08-14T07:56:38;3.10;;;2.75;;
52838;SDS011;39219;53.678;9.856;2022-08-14T07:59:06;4.03;;;2.78;;
52838;SDS011;39219;53.678;9.856;2022-08-14T08:01:32;4.38;;;3.20;;
52838;SDS011;39219;53.678;9.856;2022-08-14T08:03:59;3.95;;;2.95;;
52838;SDS011;39219;53.678;9.856;2022-08-14T08:06:29;4.22;;;3.10;;
52838;SDS011;39219;53.678;9.856;2022-08-14T08:08:57;5.25;;;3.00;;
52838;SDS011;39219;53.678;9.856;2022-08-14T08:11:26;4.55;;;3.00;;
52838;SDS011;39219;53.678;9.856;2022-08-14T08:13:54;3.63;;;2.83;;
52838;SDS011;39219;53.678;9.856;2022-08-14T08:16:23;4.80;;;3.10;;
52838;SDS011;39219;53.678;9.856;2022-08-14T08:18:50;5.95;;;3.22;;
52838;SDS011;39219;53.678;9.856;2022-08-14T08:21:16;5.05;;;3.20;;
52838;SDS011;39219;53.678;9.856;2022-08-14T08:23:43;7.00;;;3.17;;
52838;SDS011;39219;53.678;9.856;2022-08-14T08:26:09;7.13;;;3.30;;
52838;SDS011;39219;53.678;9.856;2022-08-14T08:28:37;4.38;;;3.40;;
52838;SDS011;39219;53.678;9.856;2022-08-14T08:31:04;5.25;;;3.50;;
52838;SDS011;39219;53.678;9.856;2022-08-14T08:33:32;7.43;;;3.40;;
52838;SDS011;39219;53.678;9.856;2022-08-14T08:36:02;5.40;;;3.30;;
52838;SDS011;39219;53.678;9.856;2022-08-14T08:38:32;7.03;;;3.35;;
52838;SDS011;39219;53.678;9.856;2022-08-14T08:40:59;6.20;;;3.33;;
52838;SDS011;39219;53.678;9.856;2022-08-14T08:43:27;5.47;;;3.22;;
52838;SDS011;39219;53.678;9.856;2022-08-14T08:45:57;4.80;;;3.30;;
52838;SDS011;39219;53.678;9.856;2022-08-14T08:48:26;6.13;;;3.38;;
52838;SDS011;39219;53.678;9.856;2022-08-14T08:50:54;5.45;;;3.70;;
52838;SDS011;39219;53.678;9.856;2022-08-14T08:53:21;7.05;;;3.45;;
52838;SDS011;39219;53.678;9.856;2022-08-14T08:55:48;6.25;;;3.60;;
52838;SDS011;39219;53.678;9.856;2022-08-14T08:58:15;7.72;;;3.58;;
52838;SDS011;39219;53.678;9.856;2022-08-14T09:00:44;3.90;;;3.45;;
52838;SDS011;39219;53.678;9.856;2022-08-14T09:03:14;6.57;;;3.65;;
52838;SDS011;39219;53.678;9.856;2022-08-14T09:05:50;6.65;;;3.60;;
52838;SDS011;39219;53.678;9.856;2022-08-14T09:08:20;5.60;;;4.00;;
52838;SDS011;39219;53.678;9.856;2022-08-14T09:10:49;6.80;;;3.47;;
52838;SDS011;39219;53.678;9.856;2022-08-14T09:13:16;6.95;;;3.47;;
52838;SDS011;39219;53.678;9.856;2022-08-14T09:15:43;7.45;;;3.70;;
52838;SDS011;39219;53.678;9.856;2022-08-14T09:18:15;6.93;;;3.90;;
52838;SDS011;39219;53.678;9.856;2022-08-14T09:20:44;6.60;;;3.67;;
52838;SDS011;39219;53.678;9.856;2022-08-14T09:23:12;6.90;;;4.20;;
52838;SDS011;39219;53.678;9.856;2022-08-14T09:25:40;5.43;;;4.00;;
52838;SDS011;39219;53.678;9.856;2022-08-14T09:28:12;6.78;;;4.10;;
52838;SDS011;39219;53.678;9.856;2022-08-14T09:30:40;8.25;;;4.00;;
52838;SDS011;39219;53.678;9.856;2022-08-14T09:36:18;5.65;;;4.10;;
52838;SDS011;39219;53.678;9.856;2022-08-14T09:39:03;5.97;;;4.20;;
52838;SDS011;39219;53.678;9.856;2022-08-14T09:41:36;5.95;;;4.18;;
52838;SDS011;39219;53.678;9.856;2022-08-14T09:44:17;5.57;;;4.07;;
52838;SDS011;39219;53.678;9.856;2022-08-14T09:46:54;6.28;;;3.83;;
52838;SDS011;39219;53.678;9.856;2022-08-14T09:49:30;6.72;;;4.13;;
52838;SDS011;39219;53.678;9.856;2022-08-14T09:52:04;7.50;;;4.20;;
52838;SDS011;39219;53.678;9.856;2022-08-14T09:54:34;7.82;;;4.70;;
52838;SDS011;39219;53.678;9.856;2022-08-14T09:57:03;7.88;;;4.30;;
52838;SDS011;39219;53.678;9.856;2022-08-14T09:59:38;6.32;;;4.45;;
52838;SDS011;39219;53.678;9.856;2022-08-14T10:02:20;7.40;;;4.60;;
52838;SDS011;39219;53.678;9.856;2022-08-14T10:07:44;8.35;;;4.80;;
52838;SDS011;39219;53.678;9.856;2022-08-14T10:10:14;7.40;;;4.47;;
52838;SDS011;39219;53.678;9.856;2022-08-14T10:12:53;7.55;;;4.60;;
52838;SDS011;39219;53.678;9.856;2022-08-14T10:15:21;6.13;;;4.60;;
52838;SDS011;39219;53.678;9.856;2022-08-14T10:17:49;6.35;;;4.70;;
52838;SDS011;39219;53.678;9.856;2022-08-14T10:20:32;6.60;;;4.93;;
52838;SDS011;39219;53.678;9.856;2022-08-14T10:23:07;6.65;;;4.80;;
52838;SDS011;39219;53.678;9.856;2022-08-14T10:25:38;7.70;;;4.63;;
52838;SDS011;39219;53.678;9.856;2022-08-14T10:28:05;9.18;;;5.20;;
52838;SDS011;39219;53.678;9.856;2022-08-14T10:30:32;6.53;;;4.55;;
52838;SDS011;39219;53.678;9.856;2022-08-14T10:33:01;9.63;;;5.00;;
52838;SDS011;39219;53.678;9.856;2022-08-14T10:35:39;5.22;;;4.38;;
52838;SDS011;39219;53.678;9.856;2022-08-14T10:38:06;7.53;;;4.97;;
52838;SDS011;39219;53.678;9.856;2022-08-14T10:40:34;6.22;;;4.70;;
52838;SDS011;39219;53.678;9.856;2022-08-14T10:43:01;7.40;;;4.80;;
52838;SDS011;39219;53.678;9.856;2022-08-14T10:45:30;8.00;;;5.10;;
52838;SDS011;39219;53.678;9.856;2022-08-14T10:47:58;6.40;;;4.70;;
52838;SDS011;39219;53.678;9.856;2022-08-14T10:50:29;6.65;;;4.88;;
52838;SDS011;39219;53.678;9.856;2022-08-14T10:52:58;7.93;;;4.80;;
52838;SDS011;39219;53.678;9.856;2022-08-14T10:55:32;6.10;;;4.55;;
52838;SDS011;39219;53.678;9.856;2022-08-14T11:00:31;5.38;;;4.43;;
52838;SDS011;39219;53.678;9.856;2022-08-14T11:02:59;8.45;;;5.15;;
52838;SDS011;39219;53.678;9.856;2022-08-14T11:05:37;7.95;;;5.38;;
52838;SDS011;39219;53.678;9.856;2022-08-14T11:08:08;8.68;;;5.28;;
52838;SDS011;39219;53.678;9.856;2022-08-14T11:10:39;7.40;;;4.93;;
52838;SDS011;39219;53.678;9.856;2022-08-14T11:13:14;7.55;;;5.20;;
52838;SDS011;39219;53.678;9.856;2022-08-14T11:15:42;9.02;;;5.18;;
52838;SDS011;39219;53.678;9.856;2022-08-14T11:18:10;7.80;;;5.30;;
52838;SDS011;39219;53.678;9.856;2022-08-14T11:20:37;7.07;;;5.25;;
52838;SDS011;39219;53.678;9.856;2022-08-14T11:23:08;10.35;;;5.10;;
52838;SDS011;39219;53.678;9.856;2022-08-14T11:25:38;9.65;;;4.70;;
52838;SDS011;39219;53.678;9.856;2022-08-14T11:28:10;9.13;;;5.05;;
52838;SDS011;39219;53.678;9.856;2022-08-14T11:30:38;7.00;;;5.03;;
52838;SDS011;39219;53.678;9.856;2022-08-14T11:33:06;8.10;;;4.55;;
52838;SDS011;39219;53.678;9.856;2022-08-14T11:35:33;7.07;;;5.07;;
52838;SDS011;39219;53.678;9.856;2022-08-14T11:38:02;8.88;;;5.00;;
52838;SDS011;39219;53.678;9.856;2022-08-14T11:40:31;6.22;;;4.88;;
52838;SDS011;39219;53.678;9.856;2022-08-14T11:43:00;9.77;;;5.40;;
52838;SDS011;39219;53.678;9.856;2022-08-14T11:45:30;6.93;;;5.47;;
52838;SDS011;39219;53.678;9.856;2022-08-14T11:47:58;7.60;;;5.28;;
52838;SDS011;39219;53.678;9.856;2022-08-14T11:50:26;6.43;;;5.15;;
52838;SDS011;39219;53.678;9.856;2022-08-14T11:52:54;6.93;;;4.97;;
52838;SDS011;39219;53.678;9.856;2022-08-14T11:55:23;7.35;;;4.90;;
52838;SDS011;39219;53.678;9.856;2022-08-14T11:57:59;6.88;;;4.70;;
52838;SDS011;39219;53.678;9.856;2022-08-14T12:00:27;9.93;;;4.95;;
52838;SDS011;39219;53.678;9.856;2022-08-14T12:02:54;8.68;;;4.95;;
52838;SDS011;39219;53.678;9.856;2022-08-14T12:05:29;7.53;;;4.72;;
52838;SDS011;39219;53.678;9.856;2022-08-14T12:07:57;8.70;;;5.15;;
52838;SDS011;39219;53.678;9.856;2022-08-14T12:10:24;6.95;;;5.32;;
52838;SDS011;39219;53.678;9.856;2022-08-14T12:12:51;8.25;;;5.20;;
52838;SDS011;39219;53.678;9.856;2022-08-14T12:15:28;7.65;;;5.55;;
52838;SDS011;39219;53.678;9.856;2022-08-14T12:17:56;9.00;;;5.40;;
52838;SDS011;39219;53.678;9.856;2022-08-14T12:20:27;8.13;;;5.50;;
52838;SDS011;39219;53.678;9.856;2022-08-14T12:22:55;7.03;;;5.22;;
52838;SDS011;39219;53.678;9.856;2022-08-14T12:25:24;10.10;;;5.78;;
52838;SDS011;39219;53.678;9.856;2022-08-14T12:27:52;7.13;;;5.10;;
52838;SDS011;39219;53.678;9.856;2022-08-14T12:30:29;8.52;;;5.60;;
52838;SDS011;39219;53.678;9.856;2022-08-14T12:32:58;9.10;;;5.78;;
52838;SDS011;39219;53.678;9.856;2022-08-14T12:35:37;7.07;;;5.43;;
52838;SDS011;39219;53.678;9.856;2022-08-14T12:38:05;7.90;;;5.70;;
52838;SDS011;39219;53.678;9.856;2022-08-14T12:40:44;9.05;;;6.28;;
52838;SDS011;39219;53.678;9.856;2022-08-14T12:43:11;8.80;;;5.93;;
52838;SDS011;39219;53.678;9.856;2022-08-14T12:45:39;8.85;;;5.03;;
52838;SDS011;39219;53.678;9.856;2022-08-14T12:48:14;8.23;;;5.32;;
52838;SDS011;39219;53.678;9.856;2022-08-14T12:50:42;8.45;;;5.32;;
52838;SDS011;39219;53.678;9.856;2022-08-14T12:53:09;9.32;;;5.25;;
52838;SDS011;39219;53.678;9.856;2022-08-14T12:55:36;8.77;;;5.45;;
52838;SDS011;39219;53.678;9.856;2022-08-14T12:58:04;8.30;;;5.63;;
52838;SDS011;39219;53.678;9.856;2022-08-14T13:00:31;7.93;;;5.47;;
52838;SDS011;39219;53.678;9.856;2022-08-14T13:03:00;8.32;;;5.95;;
52838;SDS011;39219;53.678;9.856;2022-08-14T13:05:29;8.48;;;5.78;;
52838;SDS011;39219;53.678;9.856;2022-08-14T13:07:59;8.93;;;5.38;;
52838;SDS011;39219;53.678;9.856;2022-08-14T13:10:30;9.43;;;5.55;;
52838;SDS011;39219;53.678;9.856;2022-08-14T13:12:58;8.60;;;5.57;;
52838;SDS011;39219;53.678;9.856;2022-08-14T13:15:26;7.38;;;5.57;;
52838;SDS011;39219;53.678;9.856;2022-08-14T13:17:54;7.70;;;5.45;;
52838;SDS011;39219;53.678;9.856;2022-08-14T13:20:23;7.25;;;5.30;;
52838;SDS011;39219;53.678;9.856;2022-08-14T13:22:52;8.07;;;5.38;;
52838;SDS011;39219;53.678;9.856;2022-08-14T13:25:20;7.72;;;5.30;;
52838;SDS011;39219;53.678;9.856;2022-08-14T13:27:49;9.63;;;5.63;;
52838;SDS011;39219;53.678;9.856;2022-08-14T13:30:18;7.88;;;5.22;;
52838;SDS011;39219;53.678;9.856;2022-08-14T13:32:45;9.07;;;5.28;;
52838;SDS011;39219;53.678;9.856;2022-08-14T13:35:12;7.10;;;5.60;;
52838;SDS011;39219;53.678;9.856;2022-08-14T13:37:42;8.07;;;5.38;;
52838;SDS011;39219;53.678;9.856;2022-08-14T13:40:10;8.05;;;5.38;;
52838;SDS011;39219;53.678;9.856;2022-08-14T13:42:40;7.53;;;5.68;;
52838;SDS011;39219;53.678;9.856;2022-08-14T13:45:08;10.75;;;5.40;;
52838;SDS011;39219;53.678;9.856;2022-08-14T13:47:37;8.20;;;5.57;;
52838;SDS011;39219;53.678;9.856;2022-08-14T13:50:05;8.93;;;5.38;;
52838;SDS011;39219;53.678;9.856;2022-08-14T13:52:38;8.45;;;5.38;;
52838;SDS011;39219;53.678;9.856;2022-08-14T13:55:08;9.25;;;5.60;;
52838;SDS011;39219;53.678;9.856;2022-08-14T13:57:37;9.02;;;5.40;;
52838;SDS011;39219;53.678;9.856;2022-08-14T14:00:06;8.30;;;5.43;;
52838;SDS011;39219;53.678;9.856;2022-08-14T14:02:36;8.43;;;5.63;;
52838;SDS011;39219;53.678;9.856;2022-08-14T14:05:04;7.72;;;5.25;;
52838;SDS011;39219;53.678;9.856;2022-08-14T14:07:32;8.10;;;5.45;;
52838;SDS011;39219;53.678;9.856;2022-08-14T14:10:02;8.48;;;5.45;;
52838;SDS011;39219;53.678;9.856;2022-08-14T14:12:33;7.20;;;4.95;;
52838;SDS011;39219;53.678;9.856;2022-08-14T14:15:02;11.27;;;5.40;;
52838;SDS011;39219;53.678;9.856;2022-08-14T14:17:30;9.27;;;5.25;;
52838;SDS011;39219;53.678;9.856;2022-08-14T14:19:57;8.05;;;4.97;;
52838;SDS011;39219;53.678;9.856;2022-08-14T14:22:23;9.93;;;5.30;;
52838;SDS011;39219;53.678;9.856;2022-08-14T14:24:51;9.30;;;5.25;;
52838;SDS011;39219;53.678;9.856;2022-08-14T14:27:18;8.90;;;5.20;;
52838;SDS011;39219;53.678;9.856;2022-08-14T14:29:47;9.95;;;5.53;;
52838;SDS011;39219;53.678;9.856;2022-08-14T14:32:15;8.90;;;5.40;;
52838;SDS011;39219;53.678;9.856;2022-08-14T14:34:43;9.50;;;5.70;;
52838;SDS011;39219;53.678;9.856;2022-08-14T14:37:10;8.30;;;5.45;;
52838;SDS011;39219;53.678;9.856;2022-08-14T14:39:40;8.40;;;5.43;;
52838;SDS011;39219;53.678;9.856;2022-08-14T14:42:07;7.93;;;5.10;;
52838;SDS011;39219;53.678;9.856;2022-08-14T14:44:35;9.82;;;5.43;;
52838;SDS011;39219;53.678;9.856;2022-08-14T14:47:08;9.88;;;5.43;;
52838;SDS011;39219;53.678;9.856;2022-08-14T14:49:35;9.82;;;5.53;;
52838;SDS011;39219;53.678;9.856;2022-08-14T14:52:03;7.47;;;5.28;;
52838;SDS011;39219;53.678;9.856;2022-08-14T14:54:31;8.23;;;5.00;;
52838;SDS011;39219;53.678;9.856;2022-08-14T14:56:57;9.73;;;5.75;;
52838;SDS011;39219;53.678;9.856;2022-08-14T14:59:25;11.05;;;5.45;;
52838;SDS011;39219;53.678;9.856;2022-08-14T15:01:53;7.30;;;5.45;;
52838;SDS011;39219;53.678;9.856;2022-08-14T15:04:25;9.07;;;5.00;;
52838;SDS011;39219;53.678;9.856;2022-08-14T15:06:52;8.68;;;5.05;;